sensor_id;sensor_type;location;lat;lon;timestamp;P1;durP1;ratioP1;P2;durP2;ratioP2
66870;SDS011;53780;44.998;9.926;2023-08-21T00:01:53;15.73;;;9.85;;
66870;SDS011;53780;44.998;9.926;2023-08-21T00:04:57;14.82;;;10.43;;
66870;SDS011;53780;44.998;9.926;2023-08-21T00:08:01;16.57;;;10.07;;
66870;SDS011;53780;44.998;9.926;2023-08-21T00:11:04;15.13;;;10.13;;
66870;SDS011;53780;44.998;9.926;2023-08-21T00:14:08;16.08;;;9.70;;
66870;SDS011;53780;44.998;9.926;2023-08-21T00:17:12;17.08;;;10.05;;
66870;SDS011;53780;44.998;9.926;2023-08-21T00:20:15;14.98;;;9.40;;
66870;SDS011;53780;44.998;9.926;2023-08-21T00:23:19;14.90;;;9.27;;
66870;SDS011;53780;44.998;9.926;2023-08-21T00:26:23;14.88;;;9.65;;
66870;SDS011;53780;44.998;9.926;2023-08-21T00:29:27;14.55;;;9.57;;
66870;SDS011;53780;44.998;9.926;2023-08-21T00:32:31;14.60;;;9.30;;
66870;SDS011;53780;44.998;9.926;2023-08-21T00:35:35;14.80;;;9.82;;
66870;SDS011;53780;44.998;9.926;2023-08-21T00:38:38;18.10;;;10.23;;
66870;SDS011;53780;44.998;9.926;2023-08-21T00:41:43;16.70;;;10.20;;
66870;SDS011;53780;44.998;9.926;2023-08-21T00:44:47;15.63;;;10.00;;
66870;SDS011;53780;44.998;9.926;2023-08-21T00:47:51;14.02;;;9.93;;
66870;SDS011;53780;44.998;9.926;2023-08-21T00:50:55;17.77;;;10.40;;
66870;SDS011;53780;44.998;9.926;2023-08-21T00:53:59;16.43;;;10.20;;
66870;SDS011;53780;44.998;9.926;2023-08-21T00:57:04;16.40;;;10.02;;
66870;SDS011;53780;44.998;9.926;2023-08-21T01:00:08;15.00;;;10.10;;
66870;SDS011;53780;44.998;9.926;2023-08-21T01:03:16;16.48;;;9.80;;
66870;SDS011;53780;44.998;9.926;2023-08-21T01:06:20;15.07;;;9.43;;
66870;SDS011;53780;44.998;9.926;2023-08-21T01:12:40;15.23;;;9.90;;
66870;SDS011;53780;44.998;9.926;2023-08-21T01:15:54;14.30;;;9.68;;
66870;SDS011;53780;44.998;9.926;2023-08-21T01:19:00;15.63;;;10.60;;
66870;SDS011;53780;44.998;9.926;2023-08-21T01:22:06;16.20;;;10.10;;
66870;SDS011;53780;44.998;9.926;2023-08-21T01:25:10;14.97;;;9.87;;
66870;SDS011;53780;44.998;9.926;2023-08-21T01:28:15;16.95;;;9.95;;
66870;SDS011;53780;44.998;9.926;2023-08-21T01:31:21;17.05;;;11.05;;
66870;SDS011;53780;44.998;9.926;2023-08-21T01:34:28;18.75;;;11.95;;
66870;SDS011;53780;44.998;9.926;2023-08-21T01:37:33;18.23;;;12.05;;
66870;SDS011;53780;44.998;9.926;2023-08-21T01:40:39;17.60;;;12.03;;
66870;SDS011;53780;44.998;9.926;2023-08-21T01:43:43;19.30;;;12.45;;
66870;SDS011;53780;44.998;9.926;2023-08-21T01:46:46;18.40;;;13.18;;
66870;SDS011;53780;44.998;9.926;2023-08-21T01:49:52;20.15;;;13.07;;
66870;SDS011;53780;44.998;9.926;2023-08-21T01:52:56;21.73;;;12.50;;
66870;SDS011;53780;44.998;9.926;2023-08-21T01:55:59;18.63;;;12.10;;
66870;SDS011;53780;44.998;9.926;2023-08-21T01:59:04;17.10;;;11.23;;
66870;SDS011;53780;44.998;9.926;2023-08-21T02:02:08;15.05;;;10.13;;
66870;SDS011;53780;44.998;9.926;2023-08-21T02:05:12;14.40;;;9.48;;
66870;SDS011;53780;44.998;9.926;2023-08-21T02:08:16;13.15;;;9.00;;
66870;SDS011;53780;44.998;9.926;2023-08-21T02:11:21;12.97;;;8.67;;
66870;SDS011;53780;44.998;9.926;2023-08-21T02:14:25;13.80;;;9.02;;
66870;SDS011;53780;44.998;9.926;2023-08-21T02:17:29;12.48;;;8.95;;
66870;SDS011;53780;44.998;9.926;2023-08-21T02:20:33;13.93;;;8.82;;
66870;SDS011;53780;44.998;9.926;2023-08-21T02:23:37;12.82;;;8.90;;
66870;SDS011;53780;44.998;9.926;2023-08-21T02:26:41;13.53;;;8.73;;
66870;SDS011;53780;44.998;9.926;2023-08-21T02:29:46;14.23;;;8.00;;
66870;SDS011;53780;44.998;9.926;2023-08-21T02:32:50;12.98;;;8.00;;
66870;SDS011;53780;44.998;9.926;2023-08-21T02:35:55;12.35;;;7.78;;
66870;SDS011;53780;44.998;9.926;2023-08-21T02:38:58;11.55;;;7.47;;
66870;SDS011;53780;44.998;9.926;2023-08-21T02:42:02;11.23;;;7.40;;
66870;SDS011;53780;44.998;9.926;2023-08-21T02:45:06;10.98;;;7.28;;
66870;SDS011;53780;44.998;9.926;2023-08-21T02:48:13;11.68;;;7.60;;
66870;SDS011;53780;44.998;9.926;2023-08-21T02:51:17;11.52;;;7.65;;
66870;SDS011;53780;44.998;9.926;2023-08-21T02:54:21;11.05;;;7.00;;
66870;SDS011;53780;44.998;9.926;2023-08-21T02:57:26;11.20;;;7.33;;
66870;SDS011;53780;44.998;9.926;2023-08-21T03:00:30;11.85;;;7.35;;
66870;SDS011;53780;44.998;9.926;2023-08-21T03:03:34;10.52;;;7.25;;
66870;SDS011;53780;44.998;9.926;2023-08-21T03:06:39;10.52;;;7.20;;
66870;SDS011;53780;44.998;9.926;2023-08-21T03:09:44;10.65;;;7.25;;
66870;SDS011;53780;44.998;9.926;2023-08-21T03:12:49;13.30;;;6.93;;
66870;SDS011;53780;44.998;9.926;2023-08-21T03:15:52;12.45;;;6.82;;
66870;SDS011;53780;44.998;9.926;2023-08-21T03:18:57;13.48;;;7.28;;
66870;SDS011;53780;44.998;9.926;2023-08-21T03:22:04;11.93;;;7.30;;
66870;SDS011;53780;44.998;9.926;2023-08-21T03:25:09;11.50;;;7.43;;
66870;SDS011;53780;44.998;9.926;2023-08-21T03:28:14;11.27;;;7.20;;
66870;SDS011;53780;44.998;9.926;2023-08-21T03:31:18;13.00;;;7.78;;
66870;SDS011;53780;44.998;9.926;2023-08-21T03:34:21;14.30;;;8.90;;
66870;SDS011;53780;44.998;9.926;2023-08-21T03:37:28;11.75;;;7.95;;
66870;SDS011;53780;44.998;9.926;2023-08-21T03:40:33;13.95;;;9.15;;
66870;SDS011;53780;44.998;9.926;2023-08-21T03:43:37;12.43;;;8.33;;
66870;SDS011;53780;44.998;9.926;2023-08-21T03:46:41;14.45;;;8.27;;
66870;SDS011;53780;44.998;9.926;2023-08-21T03:49:46;15.32;;;9.20;;
66870;SDS011;53780;44.998;9.926;2023-08-21T03:52:51;15.02;;;9.55;;
66870;SDS011;53780;44.998;9.926;2023-08-21T03:55:55;14.07;;;9.80;;
66870;SDS011;53780;44.998;9.926;2023-08-21T03:58:59;15.03;;;10.10;;
66870;SDS011;53780;44.998;9.926;2023-08-21T04:02:03;15.90;;;10.43;;
66870;SDS011;53780;44.998;9.926;2023-08-21T04:05:08;17.40;;;10.75;;
66870;SDS011;53780;44.998;9.926;2023-08-21T04:08:13;15.73;;;9.98;;
66870;SDS011;53780;44.998;9.926;2023-08-21T04:11:18;16.55;;;10.63;;
66870;SDS011;53780;44.998;9.926;2023-08-21T04:14:22;18.67;;;11.10;;
66870;SDS011;53780;44.998;9.926;2023-08-21T04:17:26;17.08;;;10.93;;
66870;SDS011;53780;44.998;9.926;2023-08-21T04:20:30;17.15;;;11.52;;
66870;SDS011;53780;44.998;9.926;2023-08-21T04:23:34;17.15;;;11.38;;
66870;SDS011;53780;44.998;9.926;2023-08-21T04:26:38;17.10;;;11.15;;
66870;SDS011;53780;44.998;9.926;2023-08-21T04:29:42;16.07;;;10.83;;
66870;SDS011;53780;44.998;9.926;2023-08-21T04:32:46;17.30;;;10.85;;
66870;SDS011;53780;44.998;9.926;2023-08-21T04:35:50;18.52;;;11.70;;
66870;SDS011;53780;44.998;9.926;2023-08-21T04:38:54;17.10;;;11.27;;
66870;SDS011;53780;44.998;9.926;2023-08-21T04:41:58;19.33;;;11.85;;
66870;SDS011;53780;44.998;9.926;2023-08-21T04:45:02;23.77;;;12.73;;
66870;SDS011;53780;44.998;9.926;2023-08-21T04:48:09;21.10;;;12.75;;
66870;SDS011;53780;44.998;9.926;2023-08-21T04:51:13;30.50;;;13.57;;
66870;SDS011;53780;44.998;9.926;2023-08-21T04:54:18;30.35;;;13.38;;
66870;SDS011;53780;44.998;9.926;2023-08-21T04:57:22;16.88;;;11.57;;
66870;SDS011;53780;44.998;9.926;2023-08-21T05:00:26;18.23;;;11.63;;
66870;SDS011;53780;44.998;9.926;2023-08-21T05:03:30;17.20;;;10.85;;
66870;SDS011;53780;44.998;9.926;2023-08-21T05:06:34;16.90;;;10.05;;
66870;SDS011;53780;44.998;9.926;2023-08-21T05:09:37;15.68;;;10.52;;
66870;SDS011;53780;44.998;9.926;2023-08-21T05:12:41;15.27;;;10.05;;
66870;SDS011;53780;44.998;9.926;2023-08-21T05:15:50;15.70;;;9.93;;
66870;SDS011;53780;44.998;9.926;2023-08-21T05:19:06;16.80;;;9.98;;
66870;SDS011;53780;44.998;9.926;2023-08-21T05:22:11;15.68;;;10.13;;
66870;SDS011;53780;44.998;9.926;2023-08-21T05:25:15;14.48;;;9.80;;
66870;SDS011;53780;44.998;9.926;2023-08-21T05:28:18;14.82;;;9.90;;
66870;SDS011;53780;44.998;9.926;2023-08-21T05:31:22;15.47;;;8.70;;
66870;SDS011;53780;44.998;9.926;2023-08-21T05:34:30;15.73;;;9.13;;
66870;SDS011;53780;44.998;9.926;2023-08-21T05:37:34;12.65;;;8.27;;
66870;SDS011;53780;44.998;9.926;2023-08-21T05:40:42;13.80;;;8.52;;
66870;SDS011;53780;44.998;9.926;2023-08-21T05:43:47;12.90;;;8.18;;
66870;SDS011;53780;44.998;9.926;2023-08-21T05:46:52;13.63;;;8.17;;
66870;SDS011;53780;44.998;9.926;2023-08-21T05:49:57;14.43;;;8.07;;
66870;SDS011;53780;44.998;9.926;2023-08-21T05:53:01;14.93;;;8.68;;
66870;SDS011;53780;44.998;9.926;2023-08-21T05:56:05;14.00;;;7.80;;
66870;SDS011;53780;44.998;9.926;2023-08-21T05:59:11;13.07;;;8.27;;
66870;SDS011;53780;44.998;9.926;2023-08-21T06:02:15;12.30;;;7.80;;
66870;SDS011;53780;44.998;9.926;2023-08-21T06:05:19;13.02;;;7.65;;
66870;SDS011;53780;44.998;9.926;2023-08-21T06:08:27;12.65;;;7.43;;
66870;SDS011;53780;44.998;9.926;2023-08-21T06:11:31;13.93;;;7.95;;
66870;SDS011;53780;44.998;9.926;2023-08-21T06:14:34;16.85;;;7.93;;
66870;SDS011;53780;44.998;9.926;2023-08-21T06:17:40;12.87;;;7.70;;
66870;SDS011;53780;44.998;9.926;2023-08-21T06:20:45;12.35;;;7.80;;
66870;SDS011;53780;44.998;9.926;2023-08-21T06:23:49;15.57;;;7.47;;
66870;SDS011;53780;44.998;9.926;2023-08-21T06:26:53;13.07;;;7.60;;
66870;SDS011;53780;44.998;9.926;2023-08-21T06:29:56;13.68;;;7.88;;
66870;SDS011;53780;44.998;9.926;2023-08-21T06:33:02;12.47;;;7.77;;
66870;SDS011;53780;44.998;9.926;2023-08-21T06:36:05;11.57;;;7.43;;
66870;SDS011;53780;44.998;9.926;2023-08-21T06:39:09;14.70;;;8.30;;
66870;SDS011;53780;44.998;9.926;2023-08-21T06:42:13;11.15;;;8.07;;
66870;SDS011;53780;44.998;9.926;2023-08-21T06:45:24;14.23;;;7.60;;
66870;SDS011;53780;44.998;9.926;2023-08-21T06:48:29;11.20;;;7.47;;
66870;SDS011;53780;44.998;9.926;2023-08-21T06:51:33;15.88;;;7.90;;
66870;SDS011;53780;44.998;9.926;2023-08-21T06:54:37;12.57;;;7.82;;
66870;SDS011;53780;44.998;9.926;2023-08-21T06:57:41;12.43;;;8.05;;
66870;SDS011;53780;44.998;9.926;2023-08-21T07:00:44;12.27;;;7.80;;
66870;SDS011;53780;44.998;9.926;2023-08-21T07:03:48;12.90;;;8.10;;
66870;SDS011;53780;44.998;9.926;2023-08-21T07:06:52;12.88;;;7.85;;
66870;SDS011;53780;44.998;9.926;2023-08-21T07:09:56;12.35;;;8.07;;
66870;SDS011;53780;44.998;9.926;2023-08-21T07:12:59;11.15;;;7.82;;
66870;SDS011;53780;44.998;9.926;2023-08-21T07:16:04;11.68;;;8.25;;
66870;SDS011;53780;44.998;9.926;2023-08-21T07:19:09;11.23;;;8.00;;
66870;SDS011;53780;44.998;9.926;2023-08-21T07:22:12;15.75;;;8.05;;
66870;SDS011;53780;44.998;9.926;2023-08-21T07:25:16;15.77;;;8.40;;
66870;SDS011;53780;44.998;9.926;2023-08-21T07:28:21;11.63;;;7.93;;
66870;SDS011;53780;44.998;9.926;2023-08-21T07:31:24;11.57;;;8.63;;
66870;SDS011;53780;44.998;9.926;2023-08-21T07:34:28;11.63;;;8.77;;
66870;SDS011;53780;44.998;9.926;2023-08-21T07:37:32;11.07;;;8.10;;
66870;SDS011;53780;44.998;9.926;2023-08-21T07:40:35;13.13;;;8.68;;
66870;SDS011;53780;44.998;9.926;2023-08-21T07:43:40;10.45;;;8.10;;
66870;SDS011;53780;44.998;9.926;2023-08-21T07:46:44;12.85;;;8.27;;
66870;SDS011;53780;44.998;9.926;2023-08-21T07:49:48;13.13;;;7.93;;
66870;SDS011;53780;44.998;9.926;2023-08-21T07:52:52;12.18;;;7.43;;
66870;SDS011;53780;44.998;9.926;2023-08-21T07:55:56;11.23;;;8.80;;
66870;SDS011;53780;44.998;9.926;2023-08-21T07:59:02;9.82;;;7.50;;
66870;SDS011;53780;44.998;9.926;2023-08-21T08:02:06;15.15;;;8.73;;
66870;SDS011;53780;44.998;9.926;2023-08-21T08:05:10;13.30;;;8.30;;
66870;SDS011;53780;44.998;9.926;2023-08-21T08:08:13;12.38;;;7.97;;
66870;SDS011;53780;44.998;9.926;2023-08-21T08:11:20;15.68;;;8.80;;
66870;SDS011;53780;44.998;9.926;2023-08-21T08:14:23;10.02;;;8.25;;
66870;SDS011;53780;44.998;9.926;2023-08-21T08:17:27;11.80;;;7.55;;
66870;SDS011;53780;44.998;9.926;2023-08-21T08:20:31;15.63;;;8.60;;
66870;SDS011;53780;44.998;9.926;2023-08-21T08:23:34;14.82;;;7.85;;
66870;SDS011;53780;44.998;9.926;2023-08-21T08:26:38;13.48;;;7.93;;
66870;SDS011;53780;44.998;9.926;2023-08-21T08:29:42;11.35;;;7.95;;
66870;SDS011;53780;44.998;9.926;2023-08-21T08:32:46;13.48;;;7.63;;
66870;SDS011;53780;44.998;9.926;2023-08-21T08:35:49;11.93;;;8.37;;
66870;SDS011;53780;44.998;9.926;2023-08-21T08:38:53;12.88;;;8.90;;
66870;SDS011;53780;44.998;9.926;2023-08-21T08:45:02;12.23;;;8.60;;
66870;SDS011;53780;44.998;9.926;2023-08-21T08:48:07;13.00;;;9.07;;
66870;SDS011;53780;44.998;9.926;2023-08-21T08:51:11;10.60;;;8.60;;
66870;SDS011;53780;44.998;9.926;2023-08-21T08:54:16;13.40;;;8.65;;
66870;SDS011;53780;44.998;9.926;2023-08-21T08:57:20;12.73;;;8.80;;
66870;SDS011;53780;44.998;9.926;2023-08-21T09:00:24;13.88;;;8.60;;
66870;SDS011;53780;44.998;9.926;2023-08-21T09:03:29;10.27;;;8.75;;
66870;SDS011;53780;44.998;9.926;2023-08-21T09:06:33;12.37;;;8.47;;
66870;SDS011;53780;44.998;9.926;2023-08-21T09:09:40;11.98;;;8.52;;
66870;SDS011;53780;44.998;9.926;2023-08-21T09:12:48;11.90;;;9.32;;
66870;SDS011;53780;44.998;9.926;2023-08-21T09:15:53;10.13;;;8.57;;
66870;SDS011;53780;44.998;9.926;2023-08-21T09:18:57;13.77;;;9.27;;
66870;SDS011;53780;44.998;9.926;2023-08-21T09:22:07;12.87;;;9.07;;
66870;SDS011;53780;44.998;9.926;2023-08-21T09:25:18;14.30;;;8.90;;
66870;SDS011;53780;44.998;9.926;2023-08-21T09:28:23;13.75;;;9.00;;
66870;SDS011;53780;44.998;9.926;2023-08-21T09:31:30;13.07;;;9.18;;
66870;SDS011;53780;44.998;9.926;2023-08-21T09:34:35;10.65;;;8.82;;
66870;SDS011;53780;44.998;9.926;2023-08-21T09:37:40;10.30;;;8.20;;
66870;SDS011;53780;44.998;9.926;2023-08-21T09:40:49;12.70;;;8.68;;
66870;SDS011;53780;44.998;9.926;2023-08-21T09:43:58;11.15;;;8.98;;
66870;SDS011;53780;44.998;9.926;2023-08-21T09:47:03;10.70;;;8.48;;
66870;SDS011;53780;44.998;9.926;2023-08-21T09:50:07;14.30;;;8.75;;
66870;SDS011;53780;44.998;9.926;2023-08-21T09:53:12;12.67;;;8.60;;
66870;SDS011;53780;44.998;9.926;2023-08-21T09:56:35;12.68;;;8.45;;
66870;SDS011;53780;44.998;9.926;2023-08-21T09:59:40;10.07;;;8.95;;
66870;SDS011;53780;44.998;9.926;2023-08-21T10:02:46;11.52;;;8.18;;
66870;SDS011;53780;44.998;9.926;2023-08-21T10:05:54;13.50;;;8.73;;
66870;SDS011;53780;44.998;9.926;2023-08-21T10:08:59;12.87;;;8.90;;
66870;SDS011;53780;44.998;9.926;2023-08-21T10:12:03;13.20;;;8.90;;
66870;SDS011;53780;44.998;9.926;2023-08-21T10:15:08;10.95;;;8.90;;
66870;SDS011;53780;44.998;9.926;2023-08-21T10:18:19;11.30;;;8.38;;
66870;SDS011;53780;44.998;9.926;2023-08-21T10:21:25;12.38;;;8.70;;
66870;SDS011;53780;44.998;9.926;2023-08-21T10:24:33;9.97;;;8.50;;
66870;SDS011;53780;44.998;9.926;2023-08-21T10:27:40;10.98;;;8.35;;
66870;SDS011;53780;44.998;9.926;2023-08-21T10:30:45;10.50;;;8.45;;
66870;SDS011;53780;44.998;9.926;2023-08-21T10:33:48;10.90;;;8.15;;
66870;SDS011;53780;44.998;9.926;2023-08-21T10:37:05;13.85;;;8.98;;
66870;SDS011;53780;44.998;9.926;2023-08-21T10:40:09;9.87;;;8.27;;
66870;SDS011;53780;44.998;9.926;2023-08-21T10:46:50;12.88;;;8.20;;
66870;SDS011;53780;44.998;9.926;2023-08-21T10:49:55;14.15;;;9.07;;
66870;SDS011;53780;44.998;9.926;2023-08-21T10:52:59;10.40;;;8.70;;
66870;SDS011;53780;44.998;9.926;2023-08-21T10:56:04;12.70;;;8.87;;
66870;SDS011;53780;44.998;9.926;2023-08-21T10:59:08;12.18;;;8.75;;
66870;SDS011;53780;44.998;9.926;2023-08-21T11:02:13;10.10;;;8.65;;
66870;SDS011;53780;44.998;9.926;2023-08-21T11:05:17;11.95;;;9.57;;
66870;SDS011;53780;44.998;9.926;2023-08-21T11:08:21;13.05;;;8.77;;
66870;SDS011;53780;44.998;9.926;2023-08-21T11:11:25;12.63;;;8.83;;
66870;SDS011;53780;44.998;9.926;2023-08-21T11:14:29;12.18;;;8.70;;
66870;SDS011;53780;44.998;9.926;2023-08-21T11:17:33;10.88;;;8.73;;
66870;SDS011;53780;44.998;9.926;2023-08-21T11:20:37;11.93;;;8.73;;
66870;SDS011;53780;44.998;9.926;2023-08-21T11:23:41;9.63;;;8.35;;
66870;SDS011;53780;44.998;9.926;2023-08-21T11:26:46;10.97;;;8.47;;
66870;SDS011;53780;44.998;9.926;2023-08-21T11:29:50;12.68;;;8.45;;
66870;SDS011;53780;44.998;9.926;2023-08-21T11:33:11;10.45;;;8.27;;
66870;SDS011;53780;44.998;9.926;2023-08-21T11:36:16;11.52;;;8.00;;
66870;SDS011;53780;44.998;9.926;2023-08-21T11:39:19;12.45;;;8.88;;
66870;SDS011;53780;44.998;9.926;2023-08-21T11:42:30;11.87;;;9.03;;
66870;SDS011;53780;44.998;9.926;2023-08-21T11:45:35;12.20;;;9.18;;
66870;SDS011;53780;44.998;9.926;2023-08-21T11:48:40;12.23;;;9.43;;
66870;SDS011;53780;44.998;9.926;2023-08-21T11:51:45;11.63;;;8.45;;
66870;SDS011;53780;44.998;9.926;2023-08-21T11:54:50;13.52;;;8.38;;
66870;SDS011;53780;44.998;9.926;2023-08-21T11:57:55;13.67;;;8.60;;
66870;SDS011;53780;44.998;9.926;2023-08-21T12:01:05;11.70;;;8.63;;
66870;SDS011;53780;44.998;9.926;2023-08-21T12:04:16;15.88;;;8.82;;
66870;SDS011;53780;44.998;9.926;2023-08-21T12:07:21;13.43;;;8.60;;
66870;SDS011;53780;44.998;9.926;2023-08-21T12:10:25;10.85;;;8.57;;
66870;SDS011;53780;44.998;9.926;2023-08-21T12:13:30;13.77;;;8.53;;
66870;SDS011;53780;44.998;9.926;2023-08-21T12:16:34;12.45;;;9.40;;
66870;SDS011;53780;44.998;9.926;2023-08-21T12:19:38;11.55;;;9.18;;
66870;SDS011;53780;44.998;9.926;2023-08-21T12:22:41;13.50;;;8.70;;
66870;SDS011;53780;44.998;9.926;2023-08-21T12:25:45;18.40;;;8.50;;
66870;SDS011;53780;44.998;9.926;2023-08-21T12:28:49;13.37;;;8.10;;
66870;SDS011;53780;44.998;9.926;2023-08-21T12:31:53;13.07;;;8.98;;
66870;SDS011;53780;44.998;9.926;2023-08-21T12:34:57;11.93;;;9.00;;
66870;SDS011;53780;44.998;9.926;2023-08-21T12:38:01;11.98;;;8.43;;
66870;SDS011;53780;44.998;9.926;2023-08-21T12:41:14;16.27;;;8.68;;
66870;SDS011;53780;44.998;9.926;2023-08-21T12:44:17;12.73;;;8.73;;
66870;SDS011;53780;44.998;9.926;2023-08-21T12:47:21;13.30;;;9.10;;
66870;SDS011;53780;44.998;9.926;2023-08-21T12:50:25;11.93;;;9.38;;
66870;SDS011;53780;44.998;9.926;2023-08-21T12:53:29;10.95;;;9.10;;
66870;SDS011;53780;44.998;9.926;2023-08-21T12:56:32;12.13;;;8.77;;
66870;SDS011;53780;44.998;9.926;2023-08-21T12:59:36;15.30;;;8.40;;
66870;SDS011;53780;44.998;9.926;2023-08-21T13:02:40;12.95;;;8.90;;
66870;SDS011;53780;44.998;9.926;2023-08-21T13:05:45;13.38;;;9.02;;
66870;SDS011;53780;44.998;9.926;2023-08-21T13:08:48;13.02;;;8.90;;
66870;SDS011;53780;44.998;9.926;2023-08-21T13:11:53;13.27;;;9.00;;
66870;SDS011;53780;44.998;9.926;2023-08-21T13:14:57;14.53;;;9.50;;
66870;SDS011;53780;44.998;9.926;2023-08-21T13:18:02;10.48;;;8.80;;
66870;SDS011;53780;44.998;9.926;2023-08-21T13:21:06;12.20;;;9.35;;
66870;SDS011;53780;44.998;9.926;2023-08-21T13:24:09;13.93;;;9.38;;
66870;SDS011;53780;44.998;9.926;2023-08-21T13:27:14;15.35;;;9.57;;
66870;SDS011;53780;44.998;9.926;2023-08-21T13:30:18;11.83;;;8.73;;
66870;SDS011;53780;44.998;9.926;2023-08-21T13:33:22;16.50;;;9.40;;
66870;SDS011;53780;44.998;9.926;2023-08-21T13:36:26;12.10;;;9.57;;
66870;SDS011;53780;44.998;9.926;2023-08-21T13:39:30;12.70;;;9.20;;
66870;SDS011;53780;44.998;9.926;2023-08-21T13:42:34;12.43;;;9.27;;
66870;SDS011;53780;44.998;9.926;2023-08-21T13:45:40;14.20;;;9.40;;
66870;SDS011;53780;44.998;9.926;2023-08-21T13:48:44;13.60;;;9.23;;
66870;SDS011;53780;44.998;9.926;2023-08-21T13:51:48;17.20;;;9.60;;
66870;SDS011;53780;44.998;9.926;2023-08-21T13:54:52;16.48;;;9.27;;
66870;SDS011;53780;44.998;9.926;2023-08-21T13:57:55;14.68;;;9.32;;
66870;SDS011;53780;44.998;9.926;2023-08-21T14:01:00;12.70;;;9.03;;
66870;SDS011;53780;44.998;9.926;2023-08-21T14:04:03;12.98;;;9.15;;
66870;SDS011;53780;44.998;9.926;2023-08-21T14:07:07;12.07;;;9.02;;
66870;SDS011;53780;44.998;9.926;2023-08-21T14:10:11;14.30;;;9.10;;
66870;SDS011;53780;44.998;9.926;2023-08-21T14:13:17;17.75;;;9.23;;
66870;SDS011;53780;44.998;9.926;2023-08-21T14:16:21;17.07;;;9.70;;
66870;SDS011;53780;44.998;9.926;2023-08-21T14:19:25;13.32;;;9.18;;
66870;SDS011;53780;44.998;9.926;2023-08-21T14:22:28;13.30;;;9.23;;
66870;SDS011;53780;44.998;9.926;2023-08-21T14:25:32;12.20;;;9.25;;
66870;SDS011;53780;44.998;9.926;2023-08-21T14:28:36;11.98;;;9.00;;
66870;SDS011;53780;44.998;9.926;2023-08-21T14:31:40;12.33;;;8.73;;
66870;SDS011;53780;44.998;9.926;2023-08-21T14:34:44;12.52;;;9.10;;
66870;SDS011;53780;44.998;9.926;2023-08-21T14:37:47;14.55;;;9.23;;
66870;SDS011;53780;44.998;9.926;2023-08-21T14:40:52;13.88;;;8.93;;
66870;SDS011;53780;44.998;9.926;2023-08-21T14:43:56;12.07;;;8.82;;
66870;SDS011;53780;44.998;9.926;2023-08-21T14:47:00;13.07;;;9.27;;
66870;SDS011;53780;44.998;9.926;2023-08-21T14:50:05;12.13;;;9.05;;
66870;SDS011;53780;44.998;9.926;2023-08-21T14:53:09;13.23;;;9.18;;
66870;SDS011;53780;44.998;9.926;2023-08-21T14:56:13;11.82;;;8.75;;
66870;SDS011;53780;44.998;9.926;2023-08-21T14:59:17;14.27;;;9.80;;
66870;SDS011;53780;44.998;9.926;2023-08-21T15:02:20;12.13;;;8.60;;
66870;SDS011;53780;44.998;9.926;2023-08-21T15:05:24;14.02;;;8.82;;
66870;SDS011;53780;44.998;9.926;2023-08-21T15:08:28;14.85;;;9.23;;
66870;SDS011;53780;44.998;9.926;2023-08-21T15:11:32;13.07;;;9.85;;
66870;SDS011;53780;44.998;9.926;2023-08-21T15:14:36;12.30;;;8.68;;
66870;SDS011;53780;44.998;9.926;2023-08-21T15:17:40;12.33;;;8.83;;
66870;SDS011;53780;44.998;9.926;2023-08-21T15:20:43;17.23;;;9.18;;
66870;SDS011;53780;44.998;9.926;2023-08-21T15:23:47;12.27;;;9.68;;
66870;SDS011;53780;44.998;9.926;2023-08-21T15:26:51;15.05;;;9.25;;
66870;SDS011;53780;44.998;9.926;2023-08-21T15:29:55;14.48;;;9.25;;
66870;SDS011;53780;44.998;9.926;2023-08-21T15:32:59;13.83;;;9.03;;
66870;SDS011;53780;44.998;9.926;2023-08-21T15:36:03;11.30;;;9.35;;
66870;SDS011;53780;44.998;9.926;2023-08-21T15:39:06;14.18;;;9.32;;
66870;SDS011;53780;44.998;9.926;2023-08-21T15:42:11;12.25;;;9.00;;
66870;SDS011;53780;44.998;9.926;2023-08-21T15:45:14;12.88;;;9.20;;
66870;SDS011;53780;44.998;9.926;2023-08-21T15:48:18;13.73;;;9.73;;
66870;SDS011;53780;44.998;9.926;2023-08-21T15:51:23;13.75;;;8.65;;
66870;SDS011;53780;44.998;9.926;2023-08-21T15:54:30;12.32;;;9.15;;
66870;SDS011;53780;44.998;9.926;2023-08-21T15:57:38;14.15;;;8.45;;
66870;SDS011;53780;44.998;9.926;2023-08-21T16:00:41;16.33;;;8.95;;
66870;SDS011;53780;44.998;9.926;2023-08-21T16:03:45;13.77;;;9.43;;
66870;SDS011;53780;44.998;9.926;2023-08-21T16:06:49;15.68;;;9.43;;
66870;SDS011;53780;44.998;9.926;2023-08-21T16:09:53;15.77;;;9.18;;
66870;SDS011;53780;44.998;9.926;2023-08-21T16:12:57;14.43;;;9.10;;
66870;SDS011;53780;44.998;9.926;2023-08-21T16:16:00;15.07;;;9.18;;
66870;SDS011;53780;44.998;9.926;2023-08-21T16:19:04;12.57;;;9.10;;
66870;SDS011;53780;44.998;9.926;2023-08-21T16:22:08;10.98;;;8.93;;
66870;SDS011;53780;44.998;9.926;2023-08-21T16:25:12;13.05;;;9.32;;
66870;SDS011;53780;44.998;9.926;2023-08-21T16:28:16;11.90;;;8.98;;
66870;SDS011;53780;44.998;9.926;2023-08-21T16:31:20;13.20;;;8.82;;
66870;SDS011;53780;44.998;9.926;2023-08-21T16:34:24;13.23;;;9.00;;
66870;SDS011;53780;44.998;9.926;2023-08-21T16:37:27;14.20;;;8.90;;
66870;SDS011;53780;44.998;9.926;2023-08-21T16:40:31;13.35;;;8.55;;
66870;SDS011;53780;44.998;9.926;2023-08-21T16:43:35;11.15;;;8.43;;
66870;SDS011;53780;44.998;9.926;2023-08-21T16:46:39;11.73;;;8.38;;
66870;SDS011;53780;44.998;9.926;2023-08-21T16:49:42;12.67;;;8.63;;
66870;SDS011;53780;44.998;9.926;2023-08-21T16:52:46;13.30;;;8.63;;
66870;SDS011;53780;44.998;9.926;2023-08-21T16:55:50;11.80;;;8.48;;
66870;SDS011;53780;44.998;9.926;2023-08-21T16:58:54;13.55;;;8.88;;
66870;SDS011;53780;44.998;9.926;2023-08-21T17:01:57;13.77;;;8.65;;
66870;SDS011;53780;44.998;9.926;2023-08-21T17:05:01;10.27;;;8.03;;
66870;SDS011;53780;44.998;9.926;2023-08-21T17:08:08;12.55;;;8.85;;
66870;SDS011;53780;44.998;9.926;2023-08-21T17:11:13;17.10;;;9.18;;
66870;SDS011;53780;44.998;9.926;2023-08-21T17:14:17;13.68;;;8.90;;
66870;SDS011;53780;44.998;9.926;2023-08-21T17:17:21;15.05;;;8.90;;
66870;SDS011;53780;44.998;9.926;2023-08-21T17:20:24;10.73;;;8.07;;
66870;SDS011;53780;44.998;9.926;2023-08-21T17:23:28;11.88;;;8.10;;
66870;SDS011;53780;44.998;9.926;2023-08-21T17:26:32;13.77;;;8.70;;
66870;SDS011;53780;44.998;9.926;2023-08-21T17:29:36;12.32;;;8.10;;
66870;SDS011;53780;44.998;9.926;2023-08-21T17:32:40;11.88;;;8.55;;
66870;SDS011;53780;44.998;9.926;2023-08-21T17:35:44;12.60;;;8.67;;
66870;SDS011;53780;44.998;9.926;2023-08-21T17:38:48;12.57;;;8.48;;
66870;SDS011;53780;44.998;9.926;2023-08-21T17:41:52;14.15;;;8.82;;
66870;SDS011;53780;44.998;9.926;2023-08-21T17:44:56;12.05;;;8.73;;
66870;SDS011;53780;44.998;9.926;2023-08-21T17:48:00;13.80;;;9.07;;
66870;SDS011;53780;44.998;9.926;2023-08-21T17:51:05;13.87;;;8.67;;
66870;SDS011;53780;44.998;9.926;2023-08-21T17:54:09;12.60;;;8.95;;
66870;SDS011;53780;44.998;9.926;2023-08-21T17:57:14;13.60;;;9.35;;
66870;SDS011;53780;44.998;9.926;2023-08-21T18:00:18;12.38;;;8.48;;
66870;SDS011;53780;44.998;9.926;2023-08-21T18:03:22;12.68;;;8.68;;
66870;SDS011;53780;44.998;9.926;2023-08-21T18:06:26;13.57;;;8.40;;
66870;SDS011;53780;44.998;9.926;2023-08-21T18:09:29;16.83;;;8.73;;
66870;SDS011;53780;44.998;9.926;2023-08-21T18:12:33;17.52;;;8.77;;
66870;SDS011;53780;44.998;9.926;2023-08-21T18:15:39;13.43;;;8.55;;
66870;SDS011;53780;44.998;9.926;2023-08-21T18:18:42;17.02;;;8.65;;
66870;SDS011;53780;44.998;9.926;2023-08-21T18:21:48;14.83;;;8.33;;
66870;SDS011;53780;44.998;9.926;2023-08-21T18:24:52;15.40;;;8.70;;